Time;durP1;ratioP1;P1;durP2;ratioP2;P2;SDS_P1;SDS_P2;PMS_P1;PMS_P2;Temp;Humidity;BMP_temperature;BMP_pressure;BME280_temperature;BME280_humidity;BME280_pressure;Samples;Min_cycle;Max_cycle;Signal;HPM_P1;HPM_P2
2022/03/25 00:00:20;;;;;;;9.33;4.70;;;;;;;;;;5000551;28;20697;-64
2022/03/25 00:02:47;;;;;;;6.10;5.33;;;;;;;;;;5000430;28;20284;-63
2022/03/25 00:05:13;;;;;;;7.40;5.43;;;;;;;;;;5001009;28;20682;-63
2022/03/25 00:07:40;;;;;;;7.00;5.03;;;;;;;;;;5018069;28;20221;-66
2022/03/25 00:10:07;;;;;;;5.97;5.17;;;;;;;;;;5007468;28;20193;-63
2022/03/25 00:12:34;;;;;;;5.67;5.17;;;;;;;;;;5003543;28;20193;-63
2022/03/25 00:15:01;;;;;;;5.97;5.37;;;;;;;;;;5003556;28;20915;-66
2022/03/25 00:17:29;;;;;;;10.77;5.30;;;;;;;;;;5003614;28;20189;-62
2022/03/25 00:19:56;;;;;;;6.50;5.80;;;;;;;;;;5002462;28;20193;-63
2022/03/25 00:22:23;;;;;;;8.77;5.43;;;;;;;;;;5006027;28;20221;-64
2022/03/25 00:24:49;;;;;;;7.83;6.03;;;;;;;;;;5010013;28;20204;-63
2022/03/25 00:27:17;;;;;;;6.27;5.67;;;;;;;;;;5009696;28;20262;-63
2022/03/25 00:29:44;;;;;;;6.20;5.60;;;;;;;;;;5004846;28;20611;-63
2022/03/25 00:32:11;;;;;;;7.87;6.13;;;;;;;;;;5008305;28;20574;-64
2022/03/25 00:34:38;;;;;;;8.13;6.27;;;;;;;;;;5007710;28;20199;-64
2022/03/25 00:37:05;;;;;;;6.73;6.00;;;;;;;;;;5001808;28;20224;-63
2022/03/25 00:39:31;;;;;;;6.17;5.53;;;;;;;;;;5007418;28;20209;-64
2022/03/25 00:41:58;;;;;;;6.93;6.23;;;;;;;;;;4995990;28;20211;-63
2022/03/25 00:44:25;;;;;;;11.77;5.70;;;;;;;;;;5008872;28;20196;-62
2022/03/25 00:46:51;;;;;;;9.27;5.77;;;;;;;;;;5025400;28;20231;-64
2022/03/25 00:49:18;;;;;;;6.17;5.57;;;;;;;;;;5006367;28;20189;-63
2022/03/25 00:51:46;;;;;;;8.20;5.80;;;;;;;;;;5005369;28;20223;-63
2022/03/25 00:54:13;;;;;;;6.60;6.00;;;;;;;;;;5021739;28;20193;-63
2022/03/25 00:56:40;;;;;;;19.17;6.07;;;;;;;;;;5007295;28;20641;-65
2022/03/25 00:59:08;;;;;;;7.13;5.87;;;;;;;;;;5007098;28;20213;-63
2022/03/25 01:01:34;;;;;;;6.70;6.00;;;;;;;;;;5008444;28;20242;-62
2022/03/25 01:04:01;;;;;;;7.18;6.47;;;;;;;;;;5006939;28;20439;-61
2022/03/25 01:06:28;;;;;;;7.03;6.27;;;;;;;;;;5008520;28;20197;-64
2022/03/25 01:08:55;;;;;;;7.17;6.47;;;;;;;;;;5023009;28;20278;-63
2022/03/25 01:11:22;;;;;;;9.80;5.97;;;;;;;;;;5010532;28;20522;-63
2022/03/25 01:13:49;;;;;;;5.90;5.30;;;;;;;;;;5006934;28;20243;-63
2022/03/25 01:16:16;;;;;;;6.20;5.60;;;;;;;;;;5010063;28;20535;-63
2022/03/25 01:18:43;;;;;;;6.67;6.00;;;;;;;;;;5009639;28;20189;-64
2022/03/25 01:21:10;;;;;;;7.87;6.03;;;;;;;;;;5005439;28;20200;-63
2022/03/25 01:23:37;;;;;;;8.37;5.90;;;;;;;;;;5009469;28;20196;-63
2022/03/25 01:26:04;;;;;;;6.67;5.97;;;;;;;;;;5002545;28;20285;-63
2022/03/25 01:28:34;;;;;;;7.23;6.13;;;;;;;;;;5008504;28;20220;-65
2022/03/25 01:31:03;;;;;;;7.10;5.97;;;;;;;;;;5006446;28;20246;-64
2022/03/25 01:33:30;;;;;;;8.50;6.73;;;;;;;;;;5022576;28;20205;-63
2022/03/25 01:35:57;;;;;;;7.50;6.50;;;;;;;;;;5000576;28;20621;-62
2022/03/25 01:38:27;;;;;;;7.57;6.37;;;;;;;;;;5001922;28;20619;-63
2022/03/25 01:40:54;;;;;;;8.63;6.47;;;;;;;;;;5006769;28;20258;-65
2022/03/25 01:43:21;;;;;;;7.00;6.30;;;;;;;;;;5009406;28;20593;-62
2022/03/25 01:45:47;;;;;;;6.87;6.17;;;;;;;;;;5003857;28;20272;-63
2022/03/25 01:48:16;;;;;;;9.37;6.50;;;;;;;;;;5005467;28;20213;-65
2022/03/25 01:50:45;;;;;;;6.60;5.90;;;;;;;;;;5007356;28;20200;-65
2022/03/25 01:53:17;;;;;;;7.00;6.30;;;;;;;;;;5009568;28;20224;-62
2022/03/25 01:56:05;;;;;;;7.13;6.07;;;;;;;;;;5006413;28;20189;-65
2022/03/25 01:58:33;;;;;;;7.67;6.87;;;;;;;;;;5003325;28;20189;-64
2022/03/25 02:01:02;;;;;;;7.40;6.70;;;;;;;;;;5006014;28;20196;-63
2022/03/25 02:03:31;;;;;;;8.43;7.07;;;;;;;;;;4999857;28;20658;-63
2022/03/25 02:05:57;;;;;;;7.80;7.00;;;;;;;;;;5003683;28;20193;-62
2022/03/25 02:08:24;;;;;;;8.37;6.77;;;;;;;;;;5008100;28;20220;-63
2022/03/25 02:10:51;;;;;;;7.63;6.60;;;;;;;;;;5000549;28;20201;-64
2022/03/25 02:13:17;;;;;;;8.23;6.87;;;;;;;;;;5001451;28;20224;-62
2022/03/25 02:15:47;;;;;;;7.47;6.20;;;;;;;;;;5008007;28;20304;-64
2022/03/25 02:18:18;;;;;;;9.47;6.90;;;;;;;;;;5000618;28;20271;-63
2022/03/25 02:20:46;;;;;;;7.27;6.57;;;;;;;;;;4991192;28;20292;-65
2022/03/25 02:23:13;;;;;;;8.37;7.20;;;;;;;;;;5004346;28;20197;-62
2022/03/25 02:25:41;;;;;;;7.70;6.40;;;;;;;;;;5001581;28;20202;-62
2022/03/25 02:28:08;;;;;;;7.23;6.53;;;;;;;;;;5008245;28;20221;-64
2022/03/25 02:30:37;;;;;;;7.83;7.00;;;;;;;;;;5005139;28;20227;-63
2022/03/25 02:33:04;;;;;;;8.40;7.13;;;;;;;;;;5007458;28;20189;-64
2022/03/25 02:35:49;;;;;;;8.43;7.40;;;;;;;;;;5000999;28;20189;-63
2022/03/25 02:38:22;;;;;;;8.27;7.37;;;;;;;;;;5006527;28;20268;-64
2022/03/25 02:40:49;;;;;;;8.97;7.70;;;;;;;;;;5004651;28;20724;-66
2022/03/25 02:43:17;;;;;;;9.60;6.87;;;;;;;;;;4999902;28;20197;-63
2022/03/25 02:45:43;;;;;;;11.23;7.27;;;;;;;;;;5007048;28;20586;-65
2022/03/25 02:48:14;;;;;;;9.53;7.20;;;;;;;;;;5022711;28;20212;-65
2022/03/25 02:50:41;;;;;;;7.97;7.10;;;;;;;;;;5005549;28;20197;-65
2022/03/25 02:53:08;;;;;;;8.70;7.20;;;;;;;;;;5003141;28;20717;-63
2022/03/25 02:55:35;;;;;;;7.40;6.60;;;;;;;;;;5016413;28;20243;-64
2022/03/25 02:58:02;;;;;;;7.53;6.73;;;;;;;;;;5004468;28;20196;-64
2022/03/25 03:00:28;;;;;;;8.37;6.83;;;;;;;;;;5007719;28;20181;-67
2022/03/25 03:02:55;;;;;;;7.93;7.07;;;;;;;;;;5009364;28;20231;-67
2022/03/25 03:05:22;;;;;;;8.40;7.23;;;;;;;;;;5007401;28;20204;-64
2022/03/25 03:07:50;;;;;;;8.23;7.43;;;;;;;;;;5003655;28;20657;-65
2022/03/25 03:10:17;;;;;;;9.73;7.47;;;;;;;;;;5000635;28;20201;-64
2022/03/25 03:12:44;;;;;;;10.50;7.90;;;;;;;;;;5000001;28;20283;-65
2022/03/25 03:15:12;;;;;;;8.33;7.37;;;;;;;;;;5004334;28;20193;-66
2022/03/25 03:17:39;;;;;;;9.93;7.20;;;;;;;;;;5006676;28;20217;-64
2022/03/25 03:20:07;;;;;;;8.73;7.00;;;;;;;;;;5008074;28;20274;-64
2022/03/25 03:22:34;;;;;;;8.40;7.17;;;;;;;;;;5020867;28;20288;-66
2022/03/25 03:25:01;;;;;;;11.20;7.73;;;;;;;;;;5002383;28;20203;-65
2022/03/25 03:27:27;;;;;;;8.47;7.17;;;;;;;;;;5004742;28;20304;-64
2022/03/25 03:29:54;;;;;;;8.30;7.40;;;;;;;;;;5007748;28;20196;-65
2022/03/25 03:32:21;;;;;;;9.07;7.57;;;;;;;;;;5006475;28;20188;-64
2022/03/25 03:34:47;;;;;;;9.07;7.63;;;;;;;;;;4983888;28;20192;-63
2022/03/25 03:37:14;;;;;;;8.27;7.47;;;;;;;;;;5002656;28;20721;-67
2022/03/25 03:39:40;;;;;;;9.30;8.13;;;;;;;;;;5006968;28;20204;-64
2022/03/25 03:42:08;;;;;;;9.77;7.63;;;;;;;;;;5005389;28;20199;-64
2022/03/25 03:44:36;;;;;;;8.17;7.30;;;;;;;;;;5008937;28;20207;-64
2022/03/25 03:47:06;;;;;;;8.77;7.87;;;;;;;;;;5004388;28;20654;-64
2022/03/25 03:49:33;;;;;;;8.20;7.30;;;;;;;;;;4992118;28;20194;-66
2022/03/25 03:51:59;;;;;;;9.63;7.77;;;;;;;;;;5009253;28;20200;-64
2022/03/25 03:54:26;;;;;;;9.37;7.40;;;;;;;;;;5011236;28;20184;-64
2022/03/25 03:56:53;;;;;;;9.90;7.47;;;;;;;;;;4998397;28;20197;-64
2022/03/25 03:59:20;;;;;;;10.47;8.20;;;;;;;;;;5006053;28;20199;-64
2022/03/25 04:01:46;;;;;;;9.10;8.03;;;;;;;;;;5009637;28;20250;-65
2022/03/25 04:04:13;;;;;;;10.43;8.90;;;;;;;;;;5012345;28;20247;-64
2022/03/25 04:06:40;;;;;;;11.77;9.93;;;;;;;;;;5011664;28;20254;-64
2022/03/25 04:09:07;;;;;;;13.40;10.63;;;;;;;;;;5006412;28;20696;-64
2022/03/25 04:11:33;;;;;;;12.60;10.87;;;;;;;;;;5010635;28;20193;-65
2022/03/25 04:14:00;;;;;;;13.53;11.07;;;;;;;;;;5010156;28;20196;-62
2022/03/25 04:16:28;;;;;;;11.93;9.73;;;;;;;;;;5003920;28;20669;-63
2022/03/25 04:18:55;;;;;;;9.60;8.20;;;;;;;;;;5006287;28;20532;-63
2022/03/25 04:21:22;;;;;;;10.93;7.83;;;;;;;;;;5009768;28;20197;-65
2022/03/25 04:23:49;;;;;;;11.53;8.03;;;;;;;;;;5011941;28;20185;-64
2022/03/25 04:26:15;;;;;;;13.07;7.87;;;;;;;;;;5010234;28;20197;-63
2022/03/25 04:28:42;;;;;;;8.67;7.70;;;;;;;;;;5026656;28;20216;-64
2022/03/25 04:31:09;;;;;;;9.10;8.10;;;;;;;;;;5009743;28;20595;-63
2022/03/25 04:33:36;;;;;;;9.30;7.90;;;;;;;;;;5009173;28;20239;-64
2022/03/25 04:36:03;;;;;;;8.53;7.60;;;;;;;;;;5009848;28;20236;-62
2022/03/25 04:38:30;;;;;;;10.70;8.43;;;;;;;;;;5006259;28;20199;-63
2022/03/25 04:40:57;;;;;;;9.20;7.33;;;;;;;;;;5008201;28;20224;-65
2022/03/25 04:43:23;;;;;;;9.37;7.60;;;;;;;;;;5011476;28;20193;-63
2022/03/25 04:45:50;;;;;;;9.53;7.87;;;;;;;;;;5007089;28;20193;-64
2022/03/25 04:48:17;;;;;;;13.43;8.73;;;;;;;;;;5005475;28;20228;-66
2022/03/25 04:50:44;;;;;;;12.90;8.30;;;;;;;;;;5024546;28;20280;-64
2022/03/25 04:53:11;;;;;;;9.57;8.57;;;;;;;;;;5003046;28;20247;-64
2022/03/25 04:55:37;;;;;;;9.47;8.43;;;;;;;;;;5007930;28;20196;-65
2022/03/25 04:58:04;;;;;;;11.03;8.40;;;;;;;;;;5008305;28;20704;-65
2022/03/25 05:00:31;;;;;;;10.40;9.30;;;;;;;;;;5003898;28;20597;-64
2022/03/25 05:02:58;;;;;;;11.20;8.93;;;;;;;;;;5007284;28;20201;-64
2022/03/25 05:05:25;;;;;;;10.03;8.93;;;;;;;;;;5008507;28;20288;-64
2022/03/25 05:07:52;;;;;;;9.53;8.53;;;;;;;;;;5004411;28;20224;-65
2022/03/25 05:10:18;;;;;;;9.53;8.53;;;;;;;;;;5008060;28;20192;-66
2022/03/25 05:12:45;;;;;;;9.90;8.63;;;;;;;;;;5008974;28;20228;-64
2022/03/25 05:15:12;;;;;;;9.03;8.13;;;;;;;;;;5006845;28;20184;-65
2022/03/25 05:17:51;;;;;;;9.23;8.33;;;;;;;;;;5005764;28;20192;-64
2022/03/25 05:20:19;;;;;;;10.37;9.27;;;;;;;;;;5005932;28;20201;-64
2022/03/25 05:22:47;;;;;;;10.07;8.57;;;;;;;;;;5002863;28;20284;-63
2022/03/25 05:25:14;;;;;;;10.50;9.23;;;;;;;;;;5008452;28;20696;-64
2022/03/25 05:27:48;;;;;;;10.13;9.13;;;;;;;;;;5000529;28;20855;-62
2022/03/25 05:30:24;;;;;;;12.00;9.97;;;;;;;;;;4988485;28;20204;-64
2022/03/25 05:32:51;;;;;;;11.70;9.67;;;;;;;;;;5007507;28;20188;-64
2022/03/25 05:35:19;;;;;;;13.63;10.30;;;;;;;;;;5007173;28;20506;-63
2022/03/25 05:37:45;;;;;;;12.13;10.30;;;;;;;;;;5007682;28;20615;-63
2022/03/25 05:40:12;;;;;;;10.77;9.67;;;;;;;;;;5009977;28;20539;-63
2022/03/25 05:42:39;;;;;;;12.10;10.17;;;;;;;;;;5006719;28;20275;-63
2022/03/25 05:45:07;;;;;;;11.70;10.50;;;;;;;;;;4987744;28;20204;-64
2022/03/25 05:47:39;;;;;;;12.60;10.43;;;;;;;;;;4999987;28;20279;-63
2022/03/25 05:50:07;;;;;;;11.47;10.37;;;;;;;;;;5002199;28;20563;-64
2022/03/25 05:52:34;;;;;;;12.20;10.90;;;;;;;;;;5008228;28;20232;-63
2022/03/25 05:55:01;;;;;;;14.50;11.37;;;;;;;;;;5003610;28;20185;-64
2022/03/25 05:57:27;;;;;;;15.30;11.07;;;;;;;;;;5004794;28;20204;-65
2022/03/25 05:59:57;;;;;;;11.03;9.93;;;;;;;;;;5008654;28;20197;-63
2022/03/25 06:02:24;;;;;;;13.67;10.73;;;;;;;;;;5009386;28;20197;-65
2022/03/25 06:04:51;;;;;;;12.57;9.20;;;;;;;;;;4988906;28;20185;-64
2022/03/25 06:07:18;;;;;;;10.80;8.20;;;;;;;;;;4983697;28;20630;-65
2022/03/25 06:09:45;;;;;;;10.07;7.57;;;;;;;;;;5009421;28;20227;-63
2022/03/25 06:12:12;;;;;;;11.47;6.37;;;;;;;;;;5022737;28;20542;-64
2022/03/25 06:14:39;;;;;;;7.73;6.30;;;;;;;;;;5004592;28;20193;-63
2022/03/25 06:17:06;;;;;;;7.57;6.40;;;;;;;;;;5008183;28;20723;-62
2022/03/25 06:19:33;;;;;;;9.20;5.70;;;;;;;;;;5006554;28;20195;-62
2022/03/25 06:22:00;;;;;;;7.77;5.70;;;;;;;;;;5007573;28;20192;-61
2022/03/25 06:24:26;;;;;;;8.07;5.80;;;;;;;;;;4994899;28;20201;-63
2022/03/25 06:26:53;;;;;;;10.27;5.37;;;;;;;;;;5006334;28;20296;-62
2022/03/25 06:29:20;;;;;;;9.10;5.47;;;;;;;;;;4989250;28;20316;-61
2022/03/25 06:31:47;;;;;;;6.37;5.27;;;;;;;;;;5000666;28;20299;-62
2022/03/25 06:34:20;;;;;;;6.57;4.77;;;;;;;;;;5009663;28;20196;-62
2022/03/25 06:36:50;;;;;;;9.53;4.70;;;;;;;;;;5005769;28;20217;-63
2022/03/25 06:39:17;;;;;;;8.40;4.57;;;;;;;;;;5002311;28;20211;-62
2022/03/25 06:41:44;;;;;;;11.03;4.73;;;;;;;;;;5002173;28;20394;-63
2022/03/25 06:44:10;;;;;;;6.33;4.93;;;;;;;;;;5003211;28;20192;-62
2022/03/25 06:46:37;;;;;;;9.23;4.40;;;;;;;;;;5008528;28;20193;-64
2022/03/25 06:49:05;;;;;;;5.43;4.40;;;;;;;;;;5008161;28;20232;-64
2022/03/25 06:51:32;;;;;;;6.93;4.80;;;;;;;;;;5005569;28;20692;-65
2022/03/25 06:53:59;;;;;;;6.00;4.77;;;;;;;;;;5003881;28;20193;-63
2022/03/25 06:56:26;;;;;;;7.27;4.63;;;;;;;;;;5002467;28;20279;-65
2022/03/25 06:58:53;;;;;;;9.50;4.70;;;;;;;;;;5005660;28;20204;-61
2022/03/25 07:01:20;;;;;;;8.57;4.47;;;;;;;;;;5008353;28;20208;-64
2022/03/25 07:03:46;;;;;;;6.83;4.30;;;;;;;;;;4987318;28;20584;-62
2022/03/25 07:06:16;;;;;;;6.53;3.93;;;;;;;;;;5003242;28;20193;-64
2022/03/25 07:08:48;;;;;;;6.77;4.13;;;;;;;;;;5008464;28;20205;-65
2022/03/25 07:11:15;;;;;;;8.27;4.50;;;;;;;;;;4999174;28;20200;-65
2022/03/25 07:13:42;;;;;;;8.87;4.70;;;;;;;;;;5002109;28;20201;-62
2022/03/25 07:16:09;;;;;;;11.50;4.10;;;;;;;;;;4999060;28;20279;-63
2022/03/25 07:18:35;;;;;;;4.47;4.07;;;;;;;;;;5004453;28;20247;-64
2022/03/25 07:21:02;;;;;;;5.73;3.83;;;;;;;;;;5003752;28;20665;-63
2022/03/25 07:23:29;;;;;;;8.37;5.07;;;;;;;;;;5003262;28;20264;-63
2022/03/25 07:25:55;;;;;;;8.43;4.53;;;;;;;;;;5008232;28;20275;-63
2022/03/25 07:28:22;;;;;;;6.07;3.90;;;;;;;;;;5008050;28;20306;-63
2022/03/25 07:30:49;;;;;;;6.20;4.50;;;;;;;;;;5007044;28;20188;-63
2022/03/25 07:33:15;;;;;;;6.10;4.20;;;;;;;;;;5006786;28;20199;-65
2022/03/25 07:35:42;;;;;;;5.90;4.07;;;;;;;;;;5002238;28;20221;-64
2022/03/25 07:38:09;;;;;;;6.97;4.43;;;;;;;;;;4999120;28;20185;-63
2022/03/25 07:40:35;;;;;;;8.00;4.73;;;;;;;;;;5008023;28;20215;-63
2022/03/25 07:43:02;;;;;;;13.80;4.63;;;;;;;;;;5007305;28;20223;-63
2022/03/25 07:45:28;;;;;;;9.03;3.90;;;;;;;;;;5006308;28;20203;-64
2022/03/25 07:47:55;;;;;;;5.63;4.40;;;;;;;;;;5002925;28;20216;-63
2022/03/25 07:50:23;;;;;;;5.63;3.80;;;;;;;;;;5002224;28;20296;-62
2022/03/25 07:52:51;;;;;;;4.80;3.70;;;;;;;;;;5005386;28;20189;-64
2022/03/25 07:55:19;;;;;;;4.67;4.27;;;;;;;;;;5008002;28;20204;-61
2022/03/25 07:57:46;;;;;;;7.67;4.50;;;;;;;;;;5006646;28;20220;-63
2022/03/25 08:00:14;;;;;;;5.50;4.27;;;;;;;;;;5004370;28;20200;-62
2022/03/25 08:02:50;;;;;;;7.70;4.83;;;;;;;;;;4997523;28;20198;-64
2022/03/25 08:05:17;;;;;;;5.23;4.17;;;;;;;;;;5006807;28;20279;-63
2022/03/25 08:07:52;;;;;;;7.93;4.23;;;;;;;;;;5008307;28;20296;-62
2022/03/25 08:10:25;;;;;;;8.07;4.00;;;;;;;;;;5005179;28;20219;-62
2022/03/25 08:12:53;;;;;;;7.93;4.00;;;;;;;;;;5005662;28;20216;-62
2022/03/25 08:15:21;;;;;;;4.83;3.83;;;;;;;;;;5006313;28;20196;-62
2022/03/25 08:18:00;;;;;;;8.30;4.20;;;;;;;;;;4999923;28;20550;-64
2022/03/25 08:20:42;;;;;;;6.20;3.53;;;;;;;;;;5003952;28;20298;-64
2022/03/25 08:28:50;;;;;;;5.20;3.90;;;;;;;;;;5002553;28;20212;-63
2022/03/25 08:31:16;;;;;;;10.10;4.13;;;;;;;;;;5009690;28;20193;-62
2022/03/25 08:33:43;;;;;;;6.00;4.63;;;;;;;;;;5009687;28;20193;-64
2022/03/25 08:36:10;;;;;;;6.63;4.53;;;;;;;;;;5009159;28;20227;-63
2022/03/25 08:38:37;;;;;;;5.30;4.30;;;;;;;;;;5010377;28;20193;-62
2022/03/25 08:41:04;;;;;;;8.63;4.00;;;;;;;;;;5008601;28;20270;-62
2022/03/25 08:43:31;;;;;;;6.97;4.30;;;;;;;;;;5010745;28;20200;-66
2022/03/25 08:45:58;;;;;;;5.43;3.90;;;;;;;;;;5008296;28;20200;-64
2022/03/25 08:48:25;;;;;;;6.73;3.43;;;;;;;;;;5009630;28;20231;-64
2022/03/25 08:50:53;;;;;;;3.67;2.90;;;;;;;;;;5024665;28;20195;-63
2022/03/25 08:53:20;;;;;;;7.07;3.53;;;;;;;;;;5011281;28;20362;-62
2022/03/25 08:55:47;;;;;;;3.60;3.30;;;;;;;;;;5001267;28;20204;-62
2022/03/25 08:58:14;;;;;;;4.63;3.40;;;;;;;;;;5008799;28;20185;-62
2022/03/25 09:00:40;;;;;;;4.77;3.30;;;;;;;;;;5007712;28;20560;-62
2022/03/25 09:03:07;;;;;;;5.10;3.50;;;;;;;;;;5008290;28;20193;-63
2022/03/25 09:05:34;;;;;;;6.43;3.27;;;;;;;;;;5009089;28;20199;-62
2022/03/25 09:08:01;;;;;;;4.40;2.80;;;;;;;;;;5023745;28;20308;-63
2022/03/25 09:10:28;;;;;;;4.13;3.20;;;;;;;;;;5008982;28;20203;-62
2022/03/25 09:12:55;;;;;;;4.97;3.40;;;;;;;;;;5006950;28;20185;-61
2022/03/25 09:15:22;;;;;;;8.03;3.30;;;;;;;;;;5008757;28;20193;-63
2022/03/25 09:17:49;;;;;;;5.97;3.00;;;;;;;;;;5008764;28;20204;-62
2022/03/25 09:20:17;;;;;;;4.83;2.70;;;;;;;;;;5004121;28;20579;-62
2022/03/25 09:22:44;;;;;;;3.40;3.03;;;;;;;;;;5008377;28;20204;-62
2022/03/25 09:25:11;;;;;;;3.77;2.90;;;;;;;;;;5020302;28;20200;-62
2022/03/25 09:27:39;;;;;;;3.83;2.70;;;;;;;;;;5008244;28;20223;-65
2022/03/25 09:30:07;;;;;;;4.17;3.07;;;;;;;;;;5000379;28;20710;-66
2022/03/25 09:32:33;;;;;;;6.90;2.90;;;;;;;;;;5005820;28;20204;-65
2022/03/25 09:35:09;;;;;;;5.40;3.10;;;;;;;;;;5007975;28;20200;-63
2022/03/25 09:37:42;;;;;;;3.60;2.70;;;;;;;;;;5007771;28;20208;-63
2022/03/25 09:40:12;;;;;;;4.67;2.50;;;;;;;;;;5002153;28;20205;-64
2022/03/25 09:42:39;;;;;;;4.33;2.70;;;;;;;;;;5004027;28;20643;-65
2022/03/25 09:45:10;;;;;;;5.60;3.07;;;;;;;;;;5009210;28;20197;-63
2022/03/25 09:47:38;;;;;;;4.10;2.57;;;;;;;;;;5009172;28;20236;-63
2022/03/25 09:50:08;;;;;;;6.67;2.90;;;;;;;;;;5005166;28;20212;-63
2022/03/25 09:52:36;;;;;;;5.37;2.67;;;;;;;;;;5002972;28;20239;-64
2022/03/25 09:55:03;;;;;;;3.10;2.73;;;;;;;;;;5001479;28;20186;-64
2022/03/25 09:57:31;;;;;;;4.87;2.93;;;;;;;;;;5007497;28;20231;-66
2022/03/25 09:59:59;;;;;;;5.23;2.97;;;;;;;;;;5006288;28;20896;-64
2022/03/25 10:02:25;;;;;;;3.17;2.70;;;;;;;;;;4998438;28;20639;-66
2022/03/25 10:04:53;;;;;;;3.47;2.60;;;16.70;99.90;;;;;;5025039;28;20201;-64
2022/03/25 10:07:24;;;;;;;2.90;2.60;;;19.80;99.90;;;;;;5003765;28;20259;-66
2022/03/25 10:10:10;;;;;;;2.90;2.47;;;23.00;98.30;;;;;;5006386;28;20196;-65
2022/03/25 10:12:38;;;;;;;4.53;2.70;;;24.20;93.10;;;;;;5009299;28;20227;-64
2022/03/25 10:15:28;;;;;;;2.40;2.20;;;21.10;94.30;;;;;;5001335;28;20220;-66
2022/03/25 10:18:03;;;;;;;5.40;2.83;;;18.80;93.00;;;;;;5004515;28;20702;-70
2022/03/25 10:20:42;;;;;;;3.67;3.00;;;17.80;96.10;;;;;;5006215;28;20287;-71
2022/03/25 10:23:11;;;;;;;4.17;3.00;;;17.60;98.90;;;;;;5001701;28;20226;-67
2022/03/25 10:25:49;;;;;;;5.23;2.93;;;17.80;98.00;;;;;;5006656;28;20653;-65
2022/03/25 10:28:36;;;;;;;3.57;2.73;;;20.90;96.00;;;;;;5002922;28;20222;-67
2022/03/25 10:31:19;;;;;;;6.30;3.27;;;21.00;93.90;;;;;;5004847;28;20193;-67
2022/03/25 10:33:59;;;;;;;4.10;2.53;;;18.60;95.40;;;;;;5000536;28;20553;-66
2022/03/25 10:36:27;;;;;;;4.60;2.50;;;17.10;92.80;;;;;;5005423;28;20228;-67
2022/03/25 10:38:58;;;;;;;4.10;3.03;;;16.10;94.50;;;;;;5020772;28;20276;-68
2022/03/25 10:41:42;;;;;;;7.90;3.37;;;15.70;97.50;;;;;;5003312;28;20203;-67
2022/03/25 10:44:10;;;;;;;5.47;3.57;;;15.30;99.20;;;;;;5002834;28;20200;-67
2022/03/25 10:46:54;;;;;;;5.10;3.07;;;15.20;99.90;;;;;;5004709;28;20224;-68
2022/03/25 10:49:20;;;;;;;4.53;3.00;;;15.10;99.90;;;;;;5004151;28;20212;-68
2022/03/25 10:51:55;;;;;;;5.43;3.57;;;15.00;99.90;;;;;;5019456;28;20189;-68
2022/03/25 10:54:27;;;;;;;3.77;2.87;;;14.90;99.90;;;;;;5002303;28;20275;-67
2022/03/25 10:57:02;;;;;;;5.27;3.70;;;14.80;99.40;;;;;;5003463;28;20642;-66
2022/03/25 10:59:34;;;;;;;3.70;2.87;;;14.80;99.90;;;;;;5003308;28;20275;-66
2022/03/25 11:02:04;;;;;;;6.20;3.20;;;14.70;98.30;;;;;;5000188;28;20923;-66
2022/03/25 11:04:31;;;;;;;5.40;3.13;;;14.60;99.20;;;;;;5003757;28;20220;-66
2022/03/25 11:06:58;;;;;;;5.07;3.00;;;14.60;99.90;;;;;;5003826;28;20280;-68
2022/03/25 11:09:27;;;;;;;4.53;3.37;;;14.50;99.90;;;;;;5000348;28;20296;-66
2022/03/25 11:11:55;;;;;;;4.10;3.60;;;14.50;99.90;;;;;;5005977;28;20542;-66
2022/03/25 11:14:22;;;;;;;4.13;3.40;;;14.50;99.90;;;;;;5007751;28;20185;-68
2022/03/25 11:16:57;;;;;;;5.20;3.27;;;14.50;99.90;;;;;;5022705;28;20271;-67
2022/03/25 11:19:25;;;;;;;3.80;3.10;;;14.30;99.90;;;;;;5001288;28;20202;-68
2022/03/25 11:21:54;;;;;;;5.93;3.30;;;14.30;99.90;;;;;;5004282;28;20809;-67
2022/03/25 11:24:48;;;;;;;4.50;3.00;;;14.30;99.90;;;;;;5014745;28;20735;-66
2022/03/25 11:27:25;;;;;;;2.97;2.50;;;14.30;99.70;;;;;;4998751;28;20215;-67
2022/03/25 11:29:57;;;;;;;3.57;2.70;;;14.20;98.50;;;;;;5004968;28;20184;-66
2022/03/25 11:32:24;;;;;;;4.63;3.00;;;14.20;99.90;;;;;;5020295;28;20235;-67
2022/03/25 11:34:56;;;;;;;9.00;3.00;;;14.20;99.70;;;;;;5002837;28;20797;-65
2022/03/25 11:37:32;;;;;;;4.00;2.97;;;14.10;99.40;;;;;;5003805;28;20735;-67
2022/03/25 11:40:18;;;;;;;5.30;3.20;;;14.10;99.90;;;;;;4997441;28;20192;-66
2022/03/25 11:42:52;;;;;;;3.77;2.83;;;14.00;99.90;;;;;;5007501;28;20652;-67
2022/03/25 11:45:37;;;;;;;3.67;3.07;;;14.00;99.90;;;;;;5009560;28;20669;-66
2022/03/25 11:48:03;;;;;;;4.40;2.90;;;14.10;99.90;;;;;;5002774;28;20327;-66
2022/03/25 11:50:31;;;;;;;5.13;3.27;;;14.10;99.90;;;;;;5001837;28;20193;-68
2022/03/25 11:53:27;;;;;;;7.83;3.00;;;14.00;99.90;;;;;;4987655;28;20811;-67
2022/03/25 11:56:07;;;;;;;25.57;4.30;;;14.00;99.90;;;;;;5004763;28;20271;-67
2022/03/25 11:58:37;;;;;;;19.27;3.67;;;14.10;99.90;;;;;;5004517;28;20203;-67
2022/03/25 12:01:13;;;;;;;21.40;3.73;;;14.10;99.90;;;;;;5005221;28;20200;-68
2022/03/25 12:03:44;;;;;;;27.57;4.87;;;14.10;99.90;;;;;;5002699;28;20296;-67
2022/03/25 12:06:11;;;;;;;352.15;29.98;;;14.10;99.90;;;;;;5022242;28;20458;-67
2022/03/25 12:08:39;;;;;;;345.42;27.48;;;14.10;99.90;;;;;;5006795;28;20461;-67
2022/03/25 12:11:11;;;;;;;713.28;50.08;;;14.10;99.90;;;;;;5008132;28;20457;-69
2022/03/25 12:13:55;;;;;;;637.53;52.60;;;14.10;99.90;;;;;;5011074;28;20216;-66
2022/03/25 12:16:49;;;;;;;1067.55;95.50;;;14.00;99.90;;;;;;5003775;28;20756;-69
2022/03/25 12:19:27;;;;;;;36.33;5.20;;;13.90;99.90;;;;;;5008654;28;20901;-66
2022/03/25 12:22:00;;;;;;;387.27;32.60;;;13.90;99.90;;;;;;5009055;28;20514;-67
2022/03/25 12:24:30;;;;;;;44.47;5.37;;;13.90;99.90;;;;;;5007716;28;20213;-66
2022/03/25 12:27:07;;;;;;;119.70;12.57;;;13.80;99.90;;;;;;5006312;28;21003;-66
2022/03/25 12:29:38;;;;;;;107.77;9.93;;;13.90;99.90;;;;;;4991454;28;20255;-67
2022/03/25 12:32:14;;;;;;;640.67;58.95;;;13.80;99.90;;;;;;5003768;28;20458;-66
2022/03/25 12:35:00;;;;;;;482.47;39.80;;;13.90;99.90;;;;;;5020295;28;20192;-66
2022/03/25 12:37:37;;;;;;;172.70;16.43;;;14.00;99.90;;;;;;5014867;28;20220;-66
2022/03/25 12:40:19;;;;;;;67.87;7.77;;;14.00;99.90;;;;;;5004706;28;20215;-67
2022/03/25 12:42:54;;;;;;;59.93;7.10;;;13.90;99.90;;;;;;5007474;28;20629;-67
2022/03/25 12:45:38;;;;;;;119.27;9.60;;;13.90;99.90;;;;;;5007521;28;20192;-67
2022/03/25 12:48:25;;;;;;;70.03;8.57;;;13.80;99.90;;;;;;5005925;28;20266;-67
2022/03/25 12:50:55;;;;;;;474.23;36.42;;;13.80;99.90;;;;;;5015501;28;20537;-66
2022/03/25 12:53:29;;;;;;;161.45;15.43;;;13.70;99.90;;;;;;5004280;28;20504;-67
2022/03/25 12:56:01;;;;;;;51.80;6.85;;;13.70;99.90;;;;;;5008031;28;20442;-67
2022/03/25 12:58:27;;;;;;;342.80;26.97;;;13.70;99.90;;;;;;5014125;28;20205;-67
2022/03/25 13:00:57;;;;;;;44.10;5.70;;;13.70;99.90;;;;;;5009704;28;20192;-67
2022/03/25 13:03:32;;;;;;;46.67;6.47;;;13.80;99.90;;;;;;5005274;28;20635;-68
2022/03/25 13:05:59;;;;;;;196.13;12.93;;;13.70;99.90;;;;;;5007630;28;20283;-66
2022/03/25 13:08:25;;;;;;;38.83;5.20;;;13.70;99.90;;;;;;5005068;28;20974;-68
2022/03/25 13:10:59;;;;;;;26.90;4.03;;;13.50;99.90;;;;;;5006628;28;20188;-66
2022/03/25 13:13:37;;;;;;;10.43;3.40;;;13.60;99.90;;;;;;5005155;28;20285;-66
2022/03/25 13:16:06;;;;;;;16.53;3.67;;;13.70;99.90;;;;;;5007368;28;20193;-68
2022/03/25 13:18:37;;;;;;;7.10;3.40;;;13.60;99.90;;;;;;5007352;28;20199;-67
2022/03/25 13:21:06;;;;;;;12.67;3.67;;;13.60;99.90;;;;;;5016595;28;20757;-65
2022/03/25 13:23:34;;;;;;;6.87;3.90;;;13.50;99.90;;;;;;5007038;28;20185;-66
2022/03/25 13:26:07;;;;;;;7.43;3.47;;;13.50;99.90;;;;;;5011848;28;20570;-67
2022/03/25 13:28:45;;;;;;;5.37;3.47;;;13.40;99.90;;;;;;4989304;28;20209;-65
2022/03/25 13:31:12;;;;;;;5.80;3.90;;;13.30;99.90;;;;;;5000733;28;20209;-67
2022/03/25 13:33:51;;;;;;;9.03;3.73;;;13.40;99.90;;;;;;5008778;28;20570;-66
2022/03/25 13:36:30;;;;;;;3.90;3.47;;;13.40;99.90;;;;;;5007201;28;20228;-65
2022/03/25 13:39:10;;;;;;;4.60;3.40;;;13.30;99.90;;;;;;4987683;28;20193;-64
2022/03/25 13:41:37;;;;;;;6.10;3.63;;;13.30;99.90;;;;;;5006765;28;20203;-66
2022/03/25 13:44:11;;;;;;;6.23;4.17;;;13.30;99.90;;;;;;5007506;28;20203;-65
2022/03/25 13:46:37;;;;;;;7.97;3.67;;;13.20;99.90;;;;;;5004890;28;20650;-65
2022/03/25 13:49:09;;;;;;;5.67;4.03;;;13.20;99.90;;;;;;5003878;28;20323;-66
2022/03/25 13:51:43;;;;;;;4.00;3.57;;;13.10;99.90;;;;;;5020639;28;20216;-65
2022/03/25 13:54:18;;;;;;;4.80;3.33;;;13.10;99.90;;;;;;5009388;28;20189;-65
2022/03/25 13:56:47;;;;;;;6.83;3.57;;;13.10;99.90;;;;;;5005600;28;20207;-67
2022/03/25 13:59:30;;;;;;;4.23;3.40;;;13.10;99.90;;;;;;5008428;28;20229;-65
2022/03/25 14:01:58;;;;;;;4.27;3.50;;;13.10;99.90;;;;;;5022368;28;20204;-65
2022/03/25 14:04:26;;;;;;;5.80;3.90;;;13.00;99.90;;;;;;5004825;28;20195;-67
2022/03/25 14:07:02;;;;;;;6.37;4.00;;;13.00;99.90;;;;;;5006640;28;20199;-65
2022/03/25 14:09:40;;;;;;;5.33;3.53;;;12.90;99.90;;;;;;4999995;28;20271;-67
2022/03/25 14:12:20;;;;;;;4.83;3.80;;;12.90;99.90;;;;;;5008857;28;20189;-66
2022/03/25 14:15:13;;;;;;;4.07;3.30;;;12.90;99.90;;;;;;5002581;28;20189;-67
2022/03/25 14:17:42;;;;;;;6.00;3.57;;;12.90;99.90;;;;;;5006699;28;20523;-65
2022/03/25 14:20:13;;;;;;;5.30;3.73;;;12.90;99.90;;;;;;5024022;28;20185;-65